• Join FlightAware (Why Join?)
  • Login
  • US Flag 
04:51AM EDT


 

Airport Tracker/Info


-or-


 

Live Flight TrackerFlight Track Log ✈ UCA1001 ✈ 29-Jan-2014 ✈ KROC - KIND

Flight Track Log - Related Links

Times and Time Zones

All times are in EST time to prevent confusion due to time zone crossing. See the UCA1001 flight status page for this flight to view local times or setup timezone preferences in your user account.

Time Position Orientation Groundspeed Altitude Reporting Facility
EST Latitude Longitude Course Direction KTS MPH feet Rate Location/Type
02:33PM 43.1092 -77.6853 214° Southwest 115 132 1,500  Level Cleveland Center
02:33PM 43.0922 -77.7008 214° Southwest 105 121 3,600 1,980 Climbing Cleveland Center
02:34PM 43.0631 -77.7061 188° South 124 143 4,900 1,200 Climbing Cleveland Center
02:35PM 43.0131 -77.7075 181° South 169 194 6,000 1,080 Climbing Cleveland Center
02:36PM 42.9597 -77.7158 187° South 188 216 7,200 1,440 Climbing Cleveland Center
02:37PM 42.8897 -77.7250 185° South 206 237 9,000 1,500 Climbing Cleveland Center
02:38PM 42.8350 -77.7444 195° South 206 237 10,300 1,200 Climbing Cleveland Center
02:39PM 42.8183 -77.8056 250° West 176 203 11,600 1,200 Climbing Cleveland Center
02:40PM 42.7986 -77.8672 246° West 177 204 12,900 1,320 Climbing Cleveland Center
02:41PM 42.7758 -77.9400 247° West 191 220 14,400 1,320 Climbing Cleveland Center
02:43PM 42.7542 -78.0114 248° West 188 216 15,700 720 Climbing Cleveland Center
02:44PM 42.7319 -78.0825 247° West 207 238 16,000 120 Climbing Cleveland Center
02:45PM 42.7056 -78.1661 247° West 237 273 16,000  Level Cleveland Center
02:46PM 42.6775 -78.2547 247° West 255 293 16,000  Level Cleveland Center
02:47PM 42.6497 -78.3414 246° West 255 293 16,000  Level Cleveland Center
02:48PM 42.6231 -78.4264 247° West 250 288 16,000  Level Cleveland Center
02:49PM 42.5914 -78.5258 247° West 244 281 16,000  Level Cleveland Center
02:50PM 42.5644 -78.6114 247° West 246 283 16,000 -120 Level Cleveland Center
02:51PM 42.5353 -78.7022 246° West 247 284 15,800 -120 Descending Cleveland Center
02:52PM 42.5094 -78.7828 247° West 248 285 15,800  Level Cleveland Center
02:53PM 42.4819 -78.8683 246° West 249 287 15,800  Level Cleveland Center
02:54PM 42.4522 -78.9614 247° West 247 284 15,800  Level Cleveland Center
02:55PM 42.4269 -79.0417 247° West 245 282 15,800  Level Cleveland Center
02:56PM 42.3994 -79.1267 246° West 247 284 15,800  Level Cleveland Center
02:57PM 42.3653 -79.2303 246° West 250 288 15,800  Level Cleveland Center
02:58PM 42.3375 -79.3175 247° West 252 290 15,900  Climbing Cleveland Center
02:59PM 42.3064 -79.4131 246° West 253 291 15,900  Level Cleveland Center
03:00PM 42.2803 -79.4919 246° West 254 292 15,900  Level Cleveland Center
03:01PM 42.2514 -79.5781 246° West 254 292 15,900  Level Cleveland Center
03:02PM 42.2172 -79.6817 246° West 254 292 15,900  Level Cleveland Center
03:03PM 42.1878 -79.7686 245° Southwest 256 295 15,900  Level Cleveland Center
03:04PM 42.1581 -79.8567 246° West 256 295 15,900  Level Cleveland Center
03:05PM 42.1294 -79.9444 246° West 256 295 15,900  Level Cleveland Center
03:06PM 42.1000 -80.0331 246° West 260 299 15,900  Level Cleveland Center
03:07PM 42.0664 -80.1356 246° West 257 296 15,900  Level Cleveland Center
03:08PM 42.0358 -80.2250 245° Southwest 258 297 15,900  Level Cleveland Center
03:09PM 42.0053 -80.3125 245° Southwest 259 298 15,900  Level Cleveland Center
03:10PM 41.9753 -80.4017 246° West 260 299 15,900  Level Cleveland Center
03:11PM 41.9461 -80.4917 246° West 260 299 15,900  Level Cleveland Center
03:12PM 41.9150 -80.5781 244° Southwest 255 293 15,900  Level Cleveland Center
03:14PM 41.8847 -80.6661 245° Southwest 258 297 15,900  Level Cleveland Center
03:15PM 41.8544 -80.7550 245° Southwest 258 297 16,000  Climbing Cleveland Center
03:16PM 41.8192 -80.8572 245° Southwest 258 297 16,000  Level Cleveland Center
03:17PM 41.7878 -80.9456 245° Southwest 258 297 16,000  Level Cleveland Center
03:18PM 41.7578 -81.0331 245° Southwest 258 297 16,000  Level Cleveland Center
03:19PM 41.7278 -81.1225 246° West 259 298 16,000  Level Cleveland Center
03:20PM 41.6967 -81.2106 245° Southwest 259 298 16,000  Level Cleveland Center
03:21PM 41.6661 -81.2983 245° Southwest 259 298 16,000  Level Cleveland Center
03:22PM 41.6342 -81.3864 244° Southwest 259 298 16,000  Level Cleveland Center
03:23PM 41.5978 -81.4897 245° Southwest 260 299 16,000  Level Cleveland Center
03:24PM 41.5672 -81.5783 245° Southwest 260 299 16,000  Level Cleveland Center
03:25PM 41.5344 -81.6664 244° Southwest 260 299 16,000  Level Cleveland Center
03:26PM 41.5042 -81.7547 245° Southwest 262 302 16,000  Level Cleveland Center
03:27PM 41.4728 -81.8431 245° Southwest 262 302 16,100  Climbing Cleveland Center
03:28PM 41.4408 -81.9308 244° Southwest 262 302 16,100  Level Cleveland Center
03:29PM 41.4072 -82.0350 247° West 262 302 16,100  Level Cleveland Center
03:30PM 41.3772 -82.1258 246° West 263 303 16,100  Level Cleveland Center
03:31PM 41.3483 -82.2164 247° West 267 307 16,100  Level Cleveland Center
03:32PM 41.3175 -82.3061 245° Southwest 266 306 16,100  Level Cleveland Center
03:33PM 41.2886 -82.3969 247° West 266 306 16,100  Level Cleveland Center
03:34PM 41.2589 -82.4861 246° West 265 305 16,100  Level Cleveland Center
03:35PM 41.2286 -82.5767 246° West 265 305 16,100  Level Cleveland Center
03:36PM 41.1928 -82.6825 246° West 266 306 16,100  Level Cleveland Center
03:37PM 41.1622 -82.7731 246° West 266 306 16,100  Level Cleveland Center
03:38PM 41.1314 -82.8642 246° West 266 306 16,100  Level Cleveland Center
03:39PM 41.1000 -82.9569 246° West 270 311 16,100  Level Cleveland Center
03:40PM 41.0703 -83.0472 246° West 269 310 16,100  Level Cleveland Center
03:41PM 41.0389 -83.1389 246° West 269 310 16,100  Level Cleveland Center
03:43PM 40.9747 -83.3250 246° West 267 307 16,100 -60 Level Cleveland Center
03:44PM 40.9439 -83.4153 246° West 267 307 16,000 -60 Descending Cleveland Center
03:46PM 40.9125 -83.5056 245° Southwest 268 308 16,000  Level Cleveland Center
03:47PM 40.8756 -83.6125 245° Southwest 268 308 16,000  Level Cleveland Center
03:48PM 40.8439 -83.7022 245° Southwest 268 308 16,000  Level Cleveland Center
03:49PM 40.8128 -83.7911 245° Southwest 268 308 16,000  Level Cleveland Center
03:50PM 40.7756 -83.8978 245° Southwest 268 308 16,000  Level Indianapolis Center
03:51PM 40.7442 -83.9872 245° Southwest 269 310 16,000  Level Indianapolis Center
03:52PM 40.7133 -84.0767 246° West 270 311 16,000  Level Indianapolis Center
03:53PM 40.6814 -84.1661 245° Southwest 272 313 16,000  Level Indianapolis Center
03:54PM 40.6428 -84.2731 245° Southwest 273 314 16,000  Level Indianapolis Center
03:55PM 40.6108 -84.3619 245° Southwest 271 312 16,000  Level Indianapolis Center
03:56PM 40.5794 -84.4517 245° Southwest 271 312 16,000  Level Indianapolis Center
03:57PM 40.5478 -84.5419 245° Southwest 274 315 16,000  Level Indianapolis Center
03:58PM 40.5156 -84.6311 245° Southwest 272 313 16,000  Level Indianapolis Center
03:59PM 40.4833 -84.7214 245° Southwest 274 315 16,000  Level Indianapolis Center
04:00PM 40.4453 -84.8281 245° Southwest 272 313 16,000  Level Indianapolis Center
04:01PM 40.4142 -84.9133 244° Southwest 272 313 16,000 -120 Level Indianapolis Center
04:02PM 40.3803 -85.0033 244° Southwest 274 315 15,800 -600 Descending Indianapolis Center
04:03PM 40.3475 -85.0969 245° Southwest 281 323 14,800 -1,080 Descending Indianapolis Center
04:04PM 40.3067 -85.2086 244° Southwest 284 327 13,600 -1,080 Descending Indianapolis Center
04:05PM 40.2739 -85.2986 245° Southwest 278 320 12,600 -1,020 Descending Indianapolis Center
04:06PM 40.2417 -85.3842 244° Southwest 267 307 11,600 -780 Descending Indianapolis Center
04:07PM 40.2083 -85.4644 241° Southwest 258 297 11,000 -300 Descending Indianapolis Center
04:08PM 40.1739 -85.5425 240° Southwest 251 289 11,000  Level Indianapolis Center
04:09PM 40.1336 -85.6369 241° Southwest 249 287 11,000  Level Indianapolis Center
04:10PM 40.1003 -85.7153 241° Southwest 249 287 11,000 -120 Level Indianapolis Center
04:12PM 40.0656 -85.7925 240° Southwest 247 284 10,800 -540 Descending Indianapolis Center
04:13PM 40.0306 -85.8733 241° Southwest 256 295 9,900 -960 Descending Indianapolis Center
04:14PM 39.9825 -85.9433 228° Southwest 259 298 8,900 -1,020 Descending Indianapolis Center
04:15PM 39.9300 -86.0081 223° Southwest 260 299 7,900 -1,080 Descending Indianapolis Center
04:16PM 39.8792 -86.0756 226° Southwest 237 273 6,700 -1,380 Descending Indianapolis Center
04:17PM 39.8389 -86.1278 225° Southwest 218 251 5,100 -1,740 Descending Indianapolis Center
04:18PM 39.8006 -86.1775 225° Southwest 206 237 3,200 -1,380 Descending Indianapolis Center
04:19PM 39.7678 -86.2178 223° Southwest 176 203 2,300 -780 Descending Indianapolis Center
04:20PM 39.7461 -86.2450 224° Southwest 134 154 1,600 -600 Descending Indianapolis Center
04:21PM 39.7269 -86.2683 223° Southwest 109 125 1,100 -420 Descending Indianapolis Center
04:22PM 39.7114 -86.2894 226° Southwest 96 110 800 -180 Descending Indianapolis Center
04:23PM 39.7153 -86.2900 354° North 60 69 800  Level Indianapolis Center
04:24PM 39.7156 -86.2931 277° West 26 30 800  Level Indianapolis Center
04:25PM 39.7156 -86.2931 277° West 12 14 800  Level Indianapolis Center
04:26PM 39.7156 -86.2928 90° East 5 6 800  Level Indianapolis Center
04:27PM 39.7156 -86.2928 90° East 2 2 800  Level Indianapolis Center
04:28PM 39.7156 -86.2931 270° West 1 1 800  Level Indianapolis Center